createdAt,value
2018-05-26T00:00:50.012Z,0.00
2018-05-26T00:01:49.948Z,0.00
2018-05-26T00:02:49.974Z,0.00
2018-05-26T00:03:49.988Z,0.00
2018-05-26T00:04:49.970Z,0.00
2018-05-26T00:05:50.066Z,0.00
2018-05-26T00:06:50.009Z,0.00
2018-05-26T00:07:50.014Z,0.00
2018-05-26T00:08:50.016Z,0.00
2018-05-26T00:09:50.069Z,0.00
2018-05-26T00:10:50.035Z,0.00
2018-05-26T00:11:50.797Z,0.00
2018-05-26T00:12:50.049Z,0.00
2018-05-26T00:13:50.018Z,0.00
2018-05-26T00:14:50.102Z,0.00
2018-05-26T00:15:50.087Z,0.00
2018-05-26T00:16:49.998Z,0.00
2018-05-26T00:17:49.889Z,0.00
2018-05-26T00:18:50.028Z,0.00
2018-05-26T00:19:49.979Z,0.00
2018-05-26T00:20:50.089Z,0.00
2018-05-26T00:21:50.077Z,0.00
2018-05-26T00:22:49.947Z,0.00
2018-05-26T00:23:50.104Z,0.00
2018-05-26T00:24:50.100Z,0.00
2018-05-26T00:25:50.103Z,0.00
2018-05-26T00:26:50.138Z,0.00
2018-05-26T00:27:50.619Z,0.00
2018-05-26T00:28:50.108Z,0.00
2018-05-26T00:29:50.123Z,0.00
2018-05-26T00:30:50.127Z,0.00
2018-05-26T00:31:50.133Z,0.00
2018-05-26T00:32:50.173Z,0.00
2018-05-26T00:33:50.158Z,0.00
2018-05-26T00:34:50.138Z,0.00
2018-05-26T00:35:50.171Z,0.00
2018-05-26T00:36:50.055Z,0.00
2018-05-26T00:37:51.936Z,0.00
2018-05-26T00:38:50.167Z,0.00
2018-05-26T00:39:50.130Z,0.00
2018-05-26T00:40:50.154Z,0.00
2018-05-26T00:41:50.150Z,0.00
2018-05-26T00:42:50.112Z,0.00
2018-05-26T00:43:49.984Z,0.00
2018-05-26T00:44:49.963Z,0.00
2018-05-26T00:45:50.013Z,0.00
2018-05-26T00:46:50.044Z,0.00
2018-05-26T00:47:50.084Z,0.00
2018-05-26T00:48:50.115Z,0.00
2018-05-26T00:49:49.998Z,0.00
2018-05-26T00:50:50.125Z,0.00
2018-05-26T00:51:50.122Z,0.00
2018-05-26T00:52:50.038Z,0.00
2018-05-26T00:53:50.133Z,0.00
2018-05-26T00:54:50.446Z,0.00
2018-05-26T00:55:50.472Z,0.00
2018-05-26T00:56:50.428Z,0.00
2018-05-26T00:57:50.445Z,0.00
2018-05-26T00:58:50.412Z,0.00
2018-05-26T00:59:49.880Z,0.00
2018-05-26T01:00:50.453Z,0.00
2018-05-26T01:01:50.437Z,0.00
2018-05-26T01:03:50.443Z,0.00
2018-05-26T01:04:50.474Z,0.00
2018-05-26T01:05:50.449Z,0.00
2018-05-26T01:06:50.429Z,0.00
2018-05-26T01:07:50.443Z,0.00
2018-05-26T01:08:50.650Z,0.00
2018-05-26T01:09:50.451Z,0.00
2018-05-26T01:10:50.432Z,0.00
2018-05-26T01:11:50.396Z,0.00
2018-05-26T01:12:50.411Z,0.00
2018-05-26T01:13:50.393Z,0.00
2018-05-26T01:14:50.373Z,0.00
2018-05-26T01:15:50.430Z,0.00
2018-05-26T01:16:50.448Z,0.00
2018-05-26T01:17:50.437Z,0.00
2018-05-26T01:18:50.489Z,0.00
2018-05-26T01:19:50.514Z,0.00
2018-05-26T01:20:50.390Z,0.00
2018-05-26T01:21:50.482Z,0.00
2018-05-26T01:22:50.437Z,0.00
2018-05-26T01:23:52.277Z,0.00
2018-05-26T01:24:50.456Z,0.00
2018-05-26T01:25:50.444Z,0.00
2018-05-26T01:26:50.435Z,0.00
2018-05-26T01:27:50.458Z,0.00
2018-05-26T01:28:50.484Z,0.00
2018-05-26T01:29:50.454Z,0.00
2018-05-26T01:30:50.449Z,0.00
2018-05-26T01:31:50.485Z,0.00
2018-05-26T01:32:50.449Z,0.00
2018-05-26T01:33:49.938Z,0.00
2018-05-26T01:34:50.501Z,0.00
2018-05-26T01:35:50.499Z,0.00
2018-05-26T01:36:50.485Z,0.00
2018-05-26T01:37:50.450Z,0.00
2018-05-26T01:38:50.472Z,0.00
2018-05-26T01:39:49.872Z,0.00
2018-05-26T01:40:50.441Z,0.00
2018-05-26T01:41:50.447Z,0.00
2018-05-26T01:42:50.411Z,0.00
2018-05-26T01:43:50.475Z,0.00
2018-05-26T01:44:50.438Z,0.00
2018-05-26T01:45:50.446Z,0.00
2018-05-26T01:46:50.438Z,0.00
2018-05-26T01:47:50.453Z,0.00
2018-05-26T01:48:50.427Z,0.00
2018-05-26T01:49:50.456Z,0.00
2018-05-26T01:50:50.431Z,0.00
2018-05-26T01:51:50.437Z,0.00
2018-05-26T01:52:50.435Z,0.00
2018-05-26T01:53:50.495Z,0.00
2018-05-26T01:54:50.365Z,0.00
2018-05-26T01:55:50.429Z,0.00
2018-05-26T01:56:50.433Z,0.00
2018-05-26T01:57:50.451Z,0.00
2018-05-26T01:58:50.431Z,0.00
2018-05-26T01:59:50.469Z,0.00
2018-05-26T02:00:50.476Z,0.00
2018-05-26T02:01:50.437Z,0.00
2018-05-26T02:02:50.454Z,0.00
2018-05-26T02:03:50.420Z,0.00
2018-05-26T02:04:50.481Z,0.00
2018-05-26T02:05:49.971Z,0.00
2018-05-26T02:06:50.432Z,0.00
2018-05-26T02:07:50.494Z,0.00
2018-05-26T02:08:50.491Z,0.00
2018-05-26T02:09:50.431Z,0.00
2018-05-26T02:10:50.375Z,0.00
2018-05-26T02:11:50.454Z,0.00
2018-05-26T02:12:50.439Z,0.00
2018-05-26T02:13:50.436Z,0.00
2018-05-26T02:14:50.473Z,0.00
2018-05-26T02:15:50.504Z,0.00
2018-05-26T02:16:50.429Z,0.00
2018-05-26T02:17:52.665Z,0.00
2018-05-26T02:18:50.481Z,0.00
2018-05-26T02:19:52.665Z,0.00
2018-05-26T02:20:50.478Z,0.00
2018-05-26T02:21:50.463Z,0.00
2018-05-26T02:22:50.485Z,0.00
2018-05-26T02:23:50.498Z,0.00
2018-05-26T02:24:50.454Z,0.00
2018-05-26T02:25:50.421Z,0.00
2018-05-26T02:26:50.435Z,0.00
2018-05-26T02:27:52.258Z,0.00
2018-05-26T02:28:50.476Z,0.00
2018-05-26T02:29:50.466Z,0.00
2018-05-26T02:30:50.471Z,0.00
2018-05-26T02:31:50.029Z,0.00
2018-05-26T02:32:50.507Z,0.00
2018-05-26T02:33:50.509Z,0.00
2018-05-26T02:34:50.477Z,0.00
2018-05-26T02:35:50.487Z,0.00
2018-05-26T02:36:50.506Z,0.00
2018-05-26T02:37:50.493Z,0.00
2018-05-26T02:38:50.436Z,0.00
2018-05-26T02:39:50.477Z,0.00
2018-05-26T02:40:50.437Z,0.00
2018-05-26T02:41:50.413Z,0.00
2018-05-26T02:42:50.489Z,0.00
2018-05-26T02:43:50.447Z,0.00
2018-05-26T02:44:50.474Z,0.00
2018-05-26T02:45:50.481Z,0.00
2018-05-26T02:46:50.490Z,0.00
2018-05-26T02:47:50.467Z,0.00
2018-05-26T02:48:50.483Z,0.00
2018-05-26T02:49:50.501Z,0.00
2018-05-26T02:50:50.490Z,4.00
2018-05-26T02:51:50.476Z,4.00
2018-05-26T02:52:50.483Z,4.00
2018-05-26T02:53:50.492Z,0.00
2018-05-26T02:54:50.477Z,4.00
2018-05-26T02:55:50.473Z,4.00
2018-05-26T02:56:50.490Z,4.00
2018-05-26T02:57:50.478Z,4.00
2018-05-26T02:58:50.509Z,4.00
2018-05-26T02:59:50.513Z,8.00
2018-05-26T03:00:50.477Z,8.00
2018-05-26T03:01:50.469Z,8.00
2018-05-26T03:03:50.487Z,12.00
2018-05-26T03:04:50.474Z,12.00
2018-05-26T03:05:50.493Z,12.00
2018-05-26T03:06:50.486Z,16.00
2018-05-26T03:07:50.468Z,20.00
2018-05-26T03:08:50.469Z,20.00
2018-05-26T03:09:50.468Z,24.00
2018-05-26T03:10:50.496Z,28.00
2018-05-26T03:11:50.489Z,28.00
2018-05-26T03:12:50.535Z,32.00
2018-05-26T03:13:50.503Z,40.00
2018-05-26T03:14:50.504Z,40.00
2018-05-26T03:15:50.508Z,44.00
2018-05-26T03:16:50.478Z,48.00
2018-05-26T03:17:50.493Z,56.00
2018-05-26T03:18:50.062Z,60.00
2018-05-26T03:19:50.502Z,64.00
2018-05-26T03:20:50.494Z,72.00
2018-05-26T03:21:50.508Z,80.00
2018-05-26T03:22:50.491Z,88.00
2018-05-26T03:23:50.554Z,92.00
2018-05-26T03:24:50.573Z,96.00
2018-05-26T03:25:50.509Z,108.00
2018-05-26T03:26:50.519Z,116.00
2018-05-26T03:27:50.537Z,124.00
2018-05-26T03:28:50.436Z,128.00
2018-05-26T03:29:50.467Z,140.00
2018-05-26T03:30:50.440Z,148.00
2018-05-26T03:31:50.472Z,160.00
2018-05-26T03:32:50.480Z,168.00
2018-05-26T03:33:50.469Z,180.00
2018-05-26T03:34:50.472Z,184.00
2018-05-26T03:35:50.473Z,196.00
2018-05-26T03:36:50.500Z,208.00
2018-05-26T03:37:50.468Z,216.00
2018-05-26T03:38:50.494Z,228.00
2018-05-26T03:39:50.449Z,240.00
2018-05-26T03:40:50.493Z,248.00
2018-05-26T03:41:50.461Z,260.00
2018-05-26T03:42:50.493Z,276.00
2018-05-26T03:43:50.485Z,288.00
2018-05-26T03:44:50.482Z,300.00
2018-05-26T03:45:50.549Z,312.00
2018-05-26T03:46:50.494Z,324.00
2018-05-26T03:47:50.534Z,336.00
2018-05-26T03:48:50.569Z,348.00
2018-05-26T03:49:50.499Z,360.00
2018-05-26T03:50:50.568Z,372.00
2018-05-26T03:51:50.484Z,384.00
2018-05-26T03:52:50.515Z,400.00
2018-05-26T03:53:50.554Z,408.00
2018-05-26T03:54:50.518Z,420.00
2018-05-26T03:55:50.523Z,436.00
2018-05-26T03:56:50.445Z,444.00
2018-05-26T03:57:50.489Z,456.00
2018-05-26T03:58:50.503Z,472.00
2018-05-26T03:59:50.505Z,480.00
2018-05-26T04:00:50.492Z,488.00
2018-05-26T04:01:50.472Z,500.00
2018-05-26T04:02:50.519Z,516.00
2018-05-26T04:03:50.513Z,528.00
2018-05-26T04:04:50.490Z,540.00
2018-05-26T04:05:50.529Z,548.00
2018-05-26T04:06:50.705Z,556.00
2018-05-26T04:07:50.491Z,568.00
2018-05-26T04:08:50.522Z,576.00
2018-05-26T04:09:50.513Z,588.00
2018-05-26T04:10:50.521Z,596.00
2018-05-26T04:11:50.520Z,608.00
2018-05-26T04:12:50.529Z,616.00
2018-05-26T04:13:50.492Z,624.00
2018-05-26T04:14:50.516Z,632.00
2018-05-26T04:15:50.443Z,636.00
2018-05-26T04:16:50.525Z,648.00
2018-05-26T04:17:50.537Z,660.00
2018-05-26T04:18:50.548Z,668.00
2018-05-26T04:19:50.545Z,676.00
2018-05-26T04:20:50.490Z,688.00
2018-05-26T04:21:50.575Z,696.00
2018-05-26T04:22:51.058Z,704.00
2018-05-26T04:23:50.558Z,716.00
2018-05-26T04:24:50.614Z,728.00
2018-05-26T04:25:50.554Z,744.00
2018-05-26T04:26:50.560Z,756.00
2018-05-26T04:27:50.259Z,764.00
2018-05-26T04:28:50.517Z,776.00
2018-05-26T04:29:50.550Z,788.00
2018-05-26T04:30:50.607Z,808.00
2018-05-26T04:31:50.469Z,824.00
2018-05-26T04:32:50.559Z,836.00
2018-05-26T04:33:50.574Z,852.00
2018-05-26T04:34:50.561Z,864.00
2018-05-26T04:35:52.524Z,876.00
2018-05-26T04:36:50.508Z,892.00
2018-05-26T04:37:50.802Z,900.00
2018-05-26T04:38:50.123Z,916.00
2018-05-26T04:39:50.526Z,928.00
2018-05-26T04:40:50.515Z,940.00
2018-05-26T04:41:50.587Z,956.00
2018-05-26T04:42:50.584Z,968.00
2018-05-26T04:43:50.705Z,980.00
2018-05-26T04:44:50.556Z,988.00
2018-05-26T04:45:52.722Z,996.00
2018-05-26T04:46:50.602Z,1008.00
2018-05-26T04:47:50.703Z,1016.00
2018-05-26T04:48:50.610Z,1024.00
2018-05-26T04:49:50.637Z,1036.00
2018-05-26T04:50:50.640Z,1052.00
2018-05-26T04:51:50.666Z,1060.00
2018-05-26T04:52:50.580Z,1072.00
2018-05-26T04:53:50.674Z,1080.00
2018-05-26T04:54:50.585Z,1092.00
2018-05-26T04:55:50.529Z,1100.00
2018-05-26T04:56:50.509Z,1108.00
2018-05-26T04:57:50.569Z,1116.00
2018-05-26T04:58:50.555Z,1124.00
2018-05-26T04:59:50.538Z,1128.00
2018-05-26T05:00:50.545Z,1136.00
2018-05-26T05:01:50.531Z,1132.00
2018-05-26T05:02:50.581Z,1140.00
2018-05-26T05:03:50.530Z,1148.00
2018-05-26T05:04:50.584Z,1156.00
2018-05-26T05:05:50.475Z,1164.00
2018-05-26T05:06:50.550Z,1172.00
2018-05-26T05:07:50.580Z,1176.00
2018-05-26T05:08:50.579Z,1188.00
2018-05-26T05:09:50.584Z,1192.00
2018-05-26T05:10:50.599Z,1200.00
2018-05-26T05:11:50.591Z,1212.00
2018-05-26T05:12:50.614Z,1216.00
2018-05-26T05:13:50.621Z,1224.00
2018-05-26T05:14:50.660Z,1232.00
2018-05-26T05:15:50.604Z,1244.00
2018-05-26T05:16:50.628Z,1260.00
2018-05-26T05:17:50.674Z,1268.00
2018-05-26T05:18:50.720Z,1288.00
2018-05-26T05:19:50.545Z,1300.00
2018-05-26T05:20:50.533Z,1312.00
2018-05-26T05:21:50.565Z,1328.00
2018-05-26T05:22:50.564Z,1344.00
2018-05-26T05:23:50.540Z,1364.00
2018-05-26T05:24:50.561Z,1380.00
2018-05-26T05:25:50.539Z,1400.00
2018-05-26T05:26:50.632Z,1412.00
2018-05-26T05:27:50.551Z,1432.00
2018-05-26T05:28:50.600Z,1440.00
2018-05-26T05:29:50.555Z,1456.00
2018-05-26T05:30:50.560Z,1464.00
2018-05-26T05:31:50.646Z,1484.00
2018-05-26T05:32:50.545Z,1496.00
2018-05-26T05:33:50.588Z,1504.00
2018-05-26T05:34:50.884Z,1520.00
2018-05-26T05:35:50.352Z,1532.00
2018-05-26T05:36:50.233Z,1548.00
2018-05-26T05:37:50.638Z,1536.00
2018-05-26T05:38:50.686Z,1576.00
2018-05-26T05:39:50.640Z,1588.00
2018-05-26T05:40:50.652Z,1600.00
2018-05-26T05:41:50.686Z,1604.00
2018-05-26T05:42:50.753Z,1616.00
2018-05-26T05:43:50.658Z,1624.00
2018-05-26T05:44:50.682Z,1628.00
2018-05-26T05:45:50.707Z,1632.00
2018-05-26T05:46:50.835Z,1636.00
2018-05-26T05:47:50.786Z,1628.00
2018-05-26T05:48:50.774Z,1624.00
2018-05-26T05:49:50.833Z,1632.00
2018-05-26T05:50:50.661Z,1644.00
2018-05-26T05:51:50.630Z,1660.00
2018-05-26T05:52:50.600Z,1668.00
2018-05-26T05:53:50.617Z,1676.00
2018-05-26T05:54:50.631Z,1692.00
2018-05-26T05:55:50.630Z,1696.00
2018-05-26T05:56:50.634Z,1700.00
2018-05-26T05:57:50.682Z,1704.00
2018-05-26T05:58:50.639Z,1704.00
2018-05-26T05:59:50.646Z,1704.00
2018-05-26T06:00:50.741Z,1712.00
2018-05-26T06:01:50.640Z,1704.00
2018-05-26T06:02:50.787Z,1700.00
2018-05-26T06:03:50.666Z,1692.00
2018-05-26T06:04:50.669Z,1692.00
2018-05-26T06:05:51.104Z,1696.00
2018-05-26T06:06:50.702Z,1708.00
2018-05-26T06:07:50.695Z,1720.00
2018-05-26T06:08:50.708Z,1720.00
2018-05-26T06:09:50.715Z,1732.00
2018-05-26T06:10:50.707Z,1736.00
2018-05-26T06:11:50.741Z,1748.00
2018-05-26T06:12:50.722Z,1764.00
2018-05-26T06:13:51.105Z,1780.00
2018-05-26T06:14:50.675Z,1780.00
2018-05-26T06:15:50.667Z,1792.00
2018-05-26T06:16:50.749Z,1804.00
2018-05-26T06:17:50.731Z,1816.00
2018-05-26T06:18:50.662Z,1820.00
2018-05-26T06:19:51.248Z,1828.00
2018-05-26T06:20:50.857Z,1824.00
2018-05-26T06:21:50.923Z,1812.00
2018-05-26T06:22:50.577Z,1816.00
2018-05-26T06:23:50.937Z,1812.00
2018-05-26T06:24:50.869Z,1800.00
2018-05-26T06:25:50.965Z,1808.00
2018-05-26T06:26:50.769Z,1824.00
2018-05-26T06:27:50.511Z,1848.00
2018-05-26T06:28:50.797Z,1852.00
2018-05-26T06:29:51.271Z,1856.00
2018-05-26T06:30:51.084Z,1872.00
2018-05-26T06:31:51.290Z,1880.00
2018-05-26T06:32:51.070Z,1908.00
2018-05-26T06:33:50.786Z,1920.00
2018-05-26T06:34:50.785Z,1932.00
2018-05-26T06:35:50.832Z,1940.00
2018-05-26T06:36:50.823Z,1940.00
2018-05-26T06:37:50.819Z,1944.00
2018-05-26T06:38:50.865Z,1936.00
2018-05-26T06:39:50.818Z,1932.00
2018-05-26T06:40:50.820Z,1928.00
2018-05-26T06:41:50.823Z,1932.00
2018-05-26T06:42:50.454Z,1932.00
2018-05-26T06:43:50.679Z,1940.00
2018-05-26T06:44:50.758Z,1940.00
2018-05-26T06:45:50.733Z,1948.00
2018-05-26T06:46:50.725Z,1952.00
2018-05-26T06:47:51.111Z,1964.00
2018-05-26T06:48:51.253Z,1980.00
2018-05-26T06:49:50.803Z,1980.00
2018-05-26T06:50:50.753Z,1992.00
2018-05-26T06:51:50.776Z,2004.00
2018-05-26T06:52:51.099Z,2012.00
2018-05-26T06:53:51.114Z,2024.00
2018-05-26T06:54:51.105Z,2024.00
2018-05-26T06:55:50.464Z,2036.00
2018-05-26T06:56:51.254Z,2044.00
2018-05-26T06:57:51.103Z,2056.00
2018-05-26T06:58:51.084Z,2068.00
2018-05-26T06:59:51.106Z,2096.00
2018-05-26T07:00:52.774Z,2108.00
2018-05-26T07:01:51.112Z,2112.00
2018-05-26T07:02:51.142Z,2128.00
2018-05-26T07:03:50.558Z,2132.00
2018-05-26T07:04:51.057Z,2128.00
2018-05-26T07:05:51.141Z,2132.00
2018-05-26T07:06:51.123Z,2132.00
2018-05-26T07:07:51.096Z,2132.00
2018-05-26T07:08:50.479Z,2128.00
2018-05-26T07:09:51.098Z,2136.00
2018-05-26T07:10:51.142Z,2152.00
2018-05-26T07:11:51.023Z,2156.00
2018-05-26T07:12:51.073Z,2164.00
2018-05-26T07:13:51.122Z,2160.00
2018-05-26T07:14:51.070Z,2160.00
2018-05-26T07:15:51.060Z,2172.00
2018-05-26T07:16:50.484Z,2168.00
2018-05-26T07:17:51.123Z,2168.00
2018-05-26T07:18:51.091Z,2152.00
2018-05-26T07:19:51.079Z,2148.00
2018-05-26T07:20:51.155Z,2168.00
2018-05-26T07:21:51.094Z,2176.00
2018-05-26T07:22:51.144Z,2180.00
2018-05-26T07:23:51.127Z,2204.00
2018-05-26T07:24:51.123Z,2212.00
2018-05-26T07:25:52.912Z,2212.00
2018-05-26T07:26:51.825Z,2212.00
2018-05-26T07:27:50.579Z,2216.00
2018-05-26T07:28:51.161Z,2220.00
2018-05-26T07:29:51.117Z,2220.00
2018-05-26T07:30:51.097Z,2232.00
2018-05-26T07:31:51.119Z,2236.00
2018-05-26T07:32:51.067Z,2244.00
2018-05-26T07:33:51.205Z,2260.00
2018-05-26T07:34:51.142Z,2260.00
2018-05-26T07:35:50.608Z,2268.00
2018-05-26T07:36:51.124Z,2284.00
2018-05-26T07:37:51.305Z,2296.00
2018-05-26T07:38:51.384Z,2312.00
2018-05-26T07:39:51.068Z,2328.00
2018-05-26T07:40:53.291Z,2348.00
2018-05-26T07:41:51.115Z,2368.00
2018-05-26T07:42:51.098Z,2396.00
2018-05-26T07:43:51.076Z,2412.00
2018-05-26T07:44:51.089Z,2428.00
2018-05-26T07:45:52.872Z,2464.00
2018-05-26T07:46:51.096Z,2480.00
2018-05-26T07:47:50.552Z,2500.00
2018-05-26T07:48:51.098Z,2516.00
2018-05-26T07:49:51.118Z,2536.00
2018-05-26T07:50:51.740Z,2544.00
2018-05-26T07:51:50.724Z,2556.00
2018-05-26T07:52:53.313Z,2576.00
2018-05-26T07:53:51.166Z,2580.00
2018-05-26T07:54:51.184Z,2568.00
2018-05-26T07:55:51.175Z,2576.00
2018-05-26T07:56:51.163Z,2592.00
2018-05-26T07:57:51.171Z,2600.00
2018-05-26T07:58:51.108Z,2604.00
2018-05-26T07:59:51.123Z,2584.00
2018-05-26T08:00:51.098Z,2584.00
2018-05-26T08:01:51.379Z,2596.00
2018-05-26T08:02:51.646Z,2596.00
2018-05-26T08:03:51.111Z,2592.00
2018-05-26T08:04:51.138Z,2596.00
2018-05-26T08:05:51.115Z,2608.00
2018-05-26T08:06:51.090Z,2628.00
2018-05-26T08:07:51.129Z,2648.00
2018-05-26T08:08:51.096Z,2672.00
2018-05-26T08:09:51.156Z,2684.00
2018-05-26T08:10:51.149Z,2696.00
2018-05-26T08:11:51.129Z,2724.00
2018-05-26T08:12:51.114Z,2752.00
2018-05-26T08:13:51.097Z,2748.00
2018-05-26T08:14:51.086Z,2760.00
2018-05-26T08:15:53.064Z,2768.00
2018-05-26T08:16:51.181Z,2780.00
2018-05-26T08:17:51.113Z,2804.00
2018-05-26T08:18:51.752Z,2828.00
2018-05-26T08:19:51.346Z,2832.00
2018-05-26T08:20:51.129Z,2844.00
2018-05-26T08:21:51.139Z,2864.00
2018-05-26T08:22:51.095Z,2880.00
2018-05-26T08:23:51.157Z,2892.00
2018-05-26T08:24:51.155Z,2892.00
2018-05-26T08:25:53.170Z,2892.00
2018-05-26T08:26:51.147Z,2896.00
2018-05-26T08:27:51.133Z,2908.00
2018-05-26T08:28:52.938Z,2920.00
2018-05-26T08:29:51.802Z,2916.00
2018-05-26T08:30:51.181Z,2928.00
2018-05-26T08:31:51.163Z,2936.00
2018-05-26T08:32:51.357Z,2952.00
2018-05-26T08:33:50.839Z,2964.00
2018-05-26T08:34:51.099Z,2992.00
2018-05-26T08:35:51.173Z,3008.00
2018-05-26T08:36:51.109Z,3012.00
2018-05-26T08:37:51.144Z,3028.00
2018-05-26T08:38:51.662Z,3060.00
2018-05-26T08:39:50.789Z,3088.00
2018-05-26T08:40:51.088Z,3092.00
2018-05-26T08:41:51.282Z,3100.00
2018-05-26T08:42:50.795Z,3140.00
2018-05-26T08:43:51.156Z,3172.00
2018-05-26T08:44:51.179Z,3172.00
2018-05-26T08:45:51.156Z,3212.00
2018-05-26T08:46:51.172Z,3256.00
2018-05-26T08:47:51.180Z,3264.00
2018-05-26T08:48:51.657Z,3264.00
2018-05-26T08:49:51.802Z,3280.00
2018-05-26T08:50:51.164Z,3336.00
2018-05-26T08:51:51.176Z,3352.00
2018-05-26T08:52:51.667Z,3308.00
2018-05-26T08:53:51.671Z,3288.00
2018-05-26T08:54:51.087Z,3336.00
2018-05-26T08:55:51.244Z,3392.00
2018-05-26T08:56:51.228Z,3432.00
2018-05-26T08:57:51.224Z,3472.00
2018-05-26T08:58:51.594Z,3528.00
2018-05-26T08:59:51.162Z,3564.00
2018-05-26T09:00:51.366Z,3536.00
2018-05-26T09:01:51.166Z,3536.00
2018-05-26T09:02:51.410Z,3576.00
2018-05-26T09:03:51.252Z,3632.00
2018-05-26T09:04:51.372Z,3676.00
2018-05-26T09:05:51.632Z,3680.00
2018-05-26T09:06:51.228Z,3676.00
2018-05-26T09:07:51.260Z,3684.00
2018-05-26T09:08:51.267Z,3736.00
2018-05-26T09:09:51.779Z,3776.00
2018-05-26T09:10:50.896Z,3748.00
2018-05-26T09:11:51.210Z,3720.00
2018-05-26T09:12:51.323Z,3684.00
2018-05-26T09:13:51.314Z,3680.00
2018-05-26T09:14:51.299Z,3716.00
2018-05-26T09:15:51.343Z,3724.00
2018-05-26T09:16:51.760Z,3708.00
2018-05-26T09:17:51.027Z,3744.00
2018-05-26T09:18:51.594Z,3768.00
2018-05-26T09:19:51.154Z,3812.00
2018-05-26T09:20:51.217Z,3840.00
2018-05-26T09:21:51.235Z,3832.00
2018-05-26T09:22:51.681Z,3868.00
2018-05-26T09:23:51.951Z,3956.00
2018-05-26T09:24:51.084Z,4004.00
2018-05-26T09:25:51.555Z,4088.00
2018-05-26T09:26:51.544Z,4016.00
2018-05-26T09:27:51.496Z,3992.00
2018-05-26T09:28:51.569Z,3996.00
2018-05-26T09:29:51.505Z,4028.00
2018-05-26T09:30:51.478Z,4100.00
2018-05-26T09:31:51.511Z,4128.00
2018-05-26T09:32:51.423Z,4136.00
2018-05-26T09:33:51.507Z,4076.00
2018-05-26T09:34:51.476Z,4088.00
2018-05-26T09:35:51.563Z,4080.00
2018-05-26T09:36:51.553Z,4076.00
2018-05-26T09:37:51.500Z,4192.00
2018-05-26T09:38:51.488Z,4268.00
2018-05-26T09:39:51.373Z,4264.00
2018-05-26T09:40:53.150Z,4248.00
2018-05-26T09:41:51.334Z,4248.00
2018-05-26T09:42:51.425Z,4284.00
2018-05-26T09:43:51.514Z,4324.00
2018-05-26T09:44:51.432Z,4312.00
2018-05-26T09:45:51.454Z,4260.00
2018-05-26T09:46:51.633Z,4180.00
2018-05-26T09:47:51.653Z,4104.00
2018-05-26T09:48:53.471Z,4076.00
2018-05-26T09:49:51.672Z,4148.00
2018-05-26T09:50:51.724Z,4144.00
2018-05-26T09:51:51.641Z,4144.00
2018-05-26T09:52:51.676Z,4192.00
2018-05-26T09:53:51.736Z,4240.00
2018-05-26T09:54:51.935Z,4400.00
2018-05-26T09:55:52.364Z,4660.00
2018-05-26T09:56:51.104Z,4808.00
2018-05-26T09:57:52.178Z,4960.00
2018-05-26T09:58:51.647Z,5048.00
2018-05-26T09:59:51.650Z,4980.00
2018-05-26T10:00:51.665Z,4824.00
2018-05-26T10:01:51.280Z,4688.00
2018-05-26T10:02:51.877Z,4532.00
2018-05-26T10:03:51.735Z,4400.00
2018-05-26T10:04:51.677Z,4388.00
2018-05-26T10:05:51.727Z,4492.00
2018-05-26T10:06:51.739Z,4472.00
2018-05-26T10:07:51.672Z,4560.00
2018-05-26T10:08:51.655Z,4596.00
2018-05-26T10:09:51.667Z,4576.00
2018-05-26T10:10:51.709Z,4600.00
2018-05-26T10:11:51.769Z,4640.00
2018-05-26T10:12:51.704Z,4648.00
2018-05-26T10:13:51.701Z,4740.00
2018-05-26T10:14:51.678Z,4776.00
2018-05-26T10:15:51.676Z,4816.00
2018-05-26T10:16:51.825Z,4900.00
2018-05-26T10:17:51.712Z,5088.00
2018-05-26T10:18:51.714Z,5304.00
2018-05-26T10:19:51.720Z,5432.00
2018-05-26T10:20:51.659Z,5472.00
2018-05-26T10:21:51.640Z,5380.00
2018-05-26T10:22:51.692Z,5248.00
2018-05-26T10:23:51.663Z,5148.00
2018-05-26T10:24:51.662Z,5040.00
2018-05-26T10:25:51.716Z,4976.00
2018-05-26T10:26:51.741Z,4788.00
2018-05-26T10:27:51.601Z,4816.00
2018-05-26T10:28:51.844Z,4884.00
2018-05-26T10:29:52.197Z,4900.00
2018-05-26T10:30:51.721Z,4844.00
2018-05-26T10:31:51.755Z,4852.00
2018-05-26T10:32:51.760Z,4932.00
2018-05-26T10:33:51.718Z,4988.00
2018-05-26T10:34:51.762Z,4964.00
2018-05-26T10:35:51.757Z,4952.00
2018-05-26T10:36:51.712Z,5012.00
2018-05-26T10:37:51.677Z,5036.00
2018-05-26T10:38:51.656Z,5096.00
2018-05-26T10:39:51.688Z,5200.00
2018-05-26T10:40:51.700Z,5356.00
2018-05-26T10:41:51.688Z,5468.00
2018-05-26T10:42:51.860Z,5552.00
2018-05-26T10:43:51.697Z,5500.00
2018-05-26T10:44:51.707Z,5400.00
2018-05-26T10:45:51.685Z,5320.00
2018-05-26T10:46:51.690Z,5232.00
2018-05-26T10:47:51.681Z,5264.00
2018-05-26T10:48:51.263Z,5388.00
2018-05-26T10:49:51.697Z,5556.00
2018-05-26T10:50:51.679Z,5724.00
2018-05-26T10:51:51.679Z,5860.00
2018-05-26T10:52:51.866Z,5924.00
2018-05-26T10:53:51.724Z,5912.00
2018-05-26T10:54:51.714Z,5864.00
2018-05-26T10:55:51.769Z,5788.00
2018-05-26T10:56:52.221Z,5812.00
2018-05-26T10:57:51.782Z,5944.00
2018-05-26T10:58:51.668Z,6044.00
2018-05-26T10:59:53.755Z,6136.00
2018-05-26T11:00:51.727Z,6148.00
2018-05-26T11:01:51.405Z,6076.00
2018-05-26T11:02:51.777Z,5988.00
2018-05-26T11:03:51.690Z,5968.00
2018-05-26T11:04:52.178Z,5948.00
2018-05-26T11:05:52.336Z,5900.00
2018-05-26T11:06:51.375Z,5828.00
2018-05-26T11:07:51.737Z,5816.00
2018-05-26T11:08:51.774Z,5932.00
2018-05-26T11:09:51.792Z,6004.00
2018-05-26T11:10:51.790Z,6020.00
2018-05-26T11:11:52.232Z,6020.00
2018-05-26T11:12:51.745Z,5924.00
2018-05-26T11:13:51.858Z,6000.00
2018-05-26T11:14:51.638Z,6132.00
2018-05-26T11:15:51.805Z,6212.00
2018-05-26T11:16:51.437Z,6200.00
2018-05-26T11:17:51.910Z,6256.00
2018-05-26T11:18:51.915Z,6376.00
2018-05-26T11:19:51.877Z,6544.00
2018-05-26T11:20:51.963Z,6628.00
2018-05-26T11:21:51.984Z,6616.00
2018-05-26T11:22:52.010Z,6492.00
2018-05-26T11:23:51.566Z,6448.00
2018-05-26T11:24:52.068Z,6428.00
2018-05-26T11:25:51.996Z,6432.00
2018-05-26T11:26:52.074Z,6472.00
2018-05-26T11:27:52.084Z,6484.00
2018-05-26T11:28:52.178Z,6464.00
2018-05-26T11:29:52.105Z,6456.00
2018-05-26T11:30:52.114Z,6476.00
2018-05-26T11:31:52.443Z,6528.00
2018-05-26T11:32:51.916Z,6576.00
2018-05-26T11:33:52.399Z,6648.00
2018-05-26T11:34:51.891Z,6664.00
2018-05-26T11:35:52.174Z,6660.00
2018-05-26T11:36:51.949Z,6704.00
2018-05-26T11:37:52.222Z,6672.00
2018-05-26T11:38:52.488Z,6620.00
2018-05-26T11:39:52.208Z,6640.00
2018-05-26T11:40:52.224Z,6732.00
2018-05-26T11:41:52.225Z,6808.00
2018-05-26T11:42:52.209Z,6836.00
2018-05-26T11:43:52.237Z,6808.00
2018-05-26T11:44:52.238Z,6836.00
2018-05-26T11:45:52.486Z,6792.00
2018-05-26T11:46:52.744Z,6800.00
2018-05-26T11:47:52.239Z,6824.00
2018-05-26T11:48:52.176Z,6856.00
2018-05-26T11:49:52.203Z,6940.00
2018-05-26T11:50:52.211Z,6984.00
2018-05-26T11:51:52.210Z,6960.00
2018-05-26T11:52:52.453Z,6988.00
2018-05-26T11:53:52.259Z,6936.00
2018-05-26T11:54:52.243Z,6900.00
2018-05-26T11:55:52.273Z,6900.00
2018-05-26T11:56:52.295Z,6996.00
2018-05-26T11:57:52.261Z,7076.00
2018-05-26T11:58:52.280Z,7132.00
2018-05-26T11:59:52.251Z,7252.00
2018-05-26T12:00:52.278Z,7356.00
2018-05-26T12:01:52.308Z,7452.00
2018-05-26T12:02:52.259Z,7524.00
2018-05-26T12:03:52.258Z,7540.00
2018-05-26T12:04:52.234Z,7620.00
2018-05-26T12:05:52.271Z,7752.00
2018-05-26T12:06:51.833Z,7788.00
2018-05-26T12:07:52.234Z,7840.00
2018-05-26T12:08:52.165Z,7828.00
2018-05-26T12:09:52.235Z,7788.00
2018-05-26T12:10:52.249Z,7756.00
2018-05-26T12:11:52.734Z,7788.00
2018-05-26T12:12:52.480Z,7840.00
2018-05-26T12:13:52.510Z,7828.00
2018-05-26T12:14:52.278Z,7840.00
2018-05-26T12:15:52.301Z,8028.00
2018-05-26T12:16:52.238Z,8368.00
2018-05-26T12:17:52.308Z,10108.00
2018-05-26T12:18:52.242Z,19424.00
2018-05-26T12:19:54.048Z,35296.00
2018-05-26T12:20:52.249Z,48224.00
2018-05-26T12:21:52.725Z,52800.00
2018-05-26T12:22:52.204Z,52512.00
2018-05-26T12:23:52.228Z,52736.00
2018-05-26T12:24:52.474Z,53248.00
2018-05-26T12:25:52.774Z,52128.00
2018-05-26T12:26:52.376Z,53472.00
2018-05-26T12:27:52.259Z,58208.00